createdAt,value
2023-05-14T00:00:48.435Z,9.55
2023-05-14T00:03:17.084Z,9.56
2023-05-14T00:05:45.504Z,9.58
2023-05-14T00:08:15.210Z,9.56
2023-05-14T00:10:43.572Z,9.50
2023-05-14T00:13:12.077Z,9.47
2023-05-14T00:15:40.478Z,9.38
2023-05-14T00:18:12.192Z,9.34
2023-05-14T00:20:40.618Z,9.35
2023-05-14T00:23:09.131Z,9.32
2023-05-14T00:25:39.070Z,9.24
2023-05-14T00:28:07.449Z,9.30
2023-05-14T00:30:35.832Z,9.30
2023-05-14T00:33:04.295Z,9.36
2023-05-14T00:35:35.341Z,9.34
2023-05-14T00:38:03.814Z,9.39
2023-05-14T00:40:32.203Z,9.42
2023-05-14T00:43:02.119Z,9.41
2023-05-14T00:45:30.511Z,9.40
2023-05-14T00:47:58.877Z,9.41
2023-05-14T00:50:27.743Z,9.43
2023-05-14T00:52:56.233Z,9.46
2023-05-14T00:55:24.774Z,9.51
2023-05-14T00:57:54.821Z,9.53
2023-05-14T01:00:25.151Z,9.51
2023-05-14T01:02:53.708Z,9.62
2023-05-14T01:05:24.157Z,9.67
2023-05-14T01:08:04.560Z,9.66
2023-05-14T01:10:40.697Z,9.66
2023-05-14T01:13:15.056Z,9.55
2023-05-14T01:15:47.946Z,9.56
2023-05-14T01:18:19.694Z,9.53
2023-05-14T01:20:51.120Z,9.31
2023-05-14T01:23:21.268Z,9.16
2023-05-14T01:25:49.616Z,9.13
2023-05-14T01:28:19.858Z,9.11
2023-05-14T01:30:53.296Z,9.14
2023-05-14T01:33:26.322Z,9.14
2023-05-14T01:35:56.149Z,9.10
2023-05-14T01:38:26.199Z,9.04
2023-05-14T01:40:55.744Z,8.98
2023-05-14T01:43:25.156Z,9.00
2023-05-14T01:45:55.496Z,8.99
2023-05-14T01:48:24.207Z,8.96
2023-05-14T01:50:52.586Z,8.96
2023-05-14T01:53:20.909Z,8.96
2023-05-14T01:55:50.665Z,8.96
2023-05-14T01:58:19.014Z,8.97
2023-05-14T02:00:47.355Z,8.96
2023-05-14T02:03:15.726Z,8.93
2023-05-14T02:05:44.153Z,8.89
2023-05-14T02:08:12.483Z,8.87
2023-05-14T02:10:40.859Z,8.83
2023-05-14T02:13:10.896Z,8.84
2023-05-14T02:15:40.017Z,8.84
2023-05-14T02:18:08.334Z,8.82
2023-05-14T02:20:36.808Z,8.77
2023-05-14T02:23:05.410Z,8.80
2023-05-14T02:25:33.775Z,8.78
2023-05-14T02:28:02.122Z,8.80
2023-05-14T02:30:31.851Z,8.86
2023-05-14T02:33:00.464Z,8.84
2023-05-14T02:35:28.870Z,8.85
2023-05-14T02:37:57.228Z,8.85
2023-05-14T02:40:25.759Z,8.96
2023-05-14T02:42:54.409Z,8.91
2023-05-14T02:45:22.819Z,8.90
2023-05-14T02:47:52.592Z,8.92
2023-05-14T02:50:21.337Z,8.93
2023-05-14T02:52:49.885Z,8.95
2023-05-14T02:55:18.455Z,9.00
2023-05-14T02:57:46.870Z,9.07
2023-05-14T03:00:15.850Z,9.15
2023-05-14T03:02:44.905Z,9.23
2023-05-14T03:05:15.279Z,9.37
2023-05-14T03:07:43.599Z,9.56
2023-05-14T03:10:12.414Z,9.81
2023-05-14T03:12:40.946Z,10.40
2023-05-14T03:15:10.398Z,11.41
2023-05-14T03:17:38.815Z,12.25
2023-05-14T03:20:08.477Z,12.41
2023-05-14T03:22:38.389Z,12.82
2023-05-14T03:25:07.477Z,13.14
2023-05-14T03:27:35.811Z,14.02
2023-05-14T03:30:04.170Z,14.97
2023-05-14T03:32:32.708Z,15.65
2023-05-14T03:35:01.089Z,15.09
2023-05-14T03:37:29.407Z,16.12
2023-05-14T03:39:59.158Z,16.21
2023-05-14T03:42:27.439Z,15.93
2023-05-14T03:44:55.852Z,16.10
2023-05-14T03:47:24.216Z,17.45
2023-05-14T03:49:52.607Z,17.77
2023-05-14T03:52:20.936Z,16.67
2023-05-14T03:54:49.397Z,15.78
2023-05-14T03:57:19.115Z,15.94
2023-05-14T03:59:47.398Z,16.41
2023-05-14T04:02:15.872Z,17.81
2023-05-14T04:04:44.398Z,18.38
2023-05-14T04:07:12.730Z,17.69
2023-05-14T04:09:41.082Z,18.82
2023-05-14T04:12:10.183Z,19.95
2023-05-14T04:14:40.169Z,20.21
2023-05-14T04:17:08.463Z,19.82
2023-05-14T04:19:36.790Z,20.16
2023-05-14T04:22:05.492Z,18.23
2023-05-14T04:24:33.886Z,19.34
2023-05-14T04:27:02.213Z,19.09
2023-05-14T04:29:30.598Z,18.01
2023-05-14T04:32:00.547Z,17.21
2023-05-14T04:34:29.109Z,15.71
2023-05-14T04:36:57.474Z,16.46
2023-05-14T04:39:26.046Z,18.38
2023-05-14T04:41:54.388Z,19.00
2023-05-14T04:44:22.921Z,20.61
2023-05-14T04:46:51.292Z,21.83
2023-05-14T04:49:21.100Z,21.84
2023-05-14T04:51:49.484Z,20.58
2023-05-14T04:54:17.832Z,20.62
2023-05-14T04:56:46.321Z,21.54
2023-05-14T04:59:14.653Z,21.82
2023-05-14T05:01:42.988Z,20.96
2023-05-14T05:04:11.414Z,21.04
2023-05-14T05:06:41.435Z,20.58
2023-05-14T05:09:10.059Z,21.77
2023-05-14T05:11:39.021Z,23.70
2023-05-14T05:14:07.437Z,23.62
2023-05-14T05:16:35.860Z,22.95
2023-05-14T05:19:04.556Z,21.64
2023-05-14T05:21:33.196Z,21.75
2023-05-14T05:24:03.257Z,24.63
2023-05-14T05:26:31.839Z,23.44
2023-05-14T05:29:00.156Z,23.20
2023-05-14T05:31:29.120Z,23.87
2023-05-14T05:33:57.522Z,24.26
2023-05-14T05:36:25.821Z,23.71
2023-05-14T05:38:54.297Z,24.03
2023-05-14T05:41:24.067Z,24.27
2023-05-14T05:43:52.542Z,27.20
2023-05-14T05:46:20.984Z,28.51
2023-05-14T05:48:49.246Z,26.95
2023-05-14T05:51:17.665Z,28.00
2023-05-14T05:53:46.421Z,29.32
2023-05-14T05:56:14.734Z,26.65
2023-05-14T05:58:44.444Z,25.93
2023-05-14T06:01:12.826Z,27.28
2023-05-14T06:03:41.219Z,25.39
2023-05-14T06:06:10.022Z,25.46
2023-05-14T06:08:38.333Z,26.22
2023-05-14T06:11:06.818Z,27.43
2023-05-14T06:13:35.150Z,27.80
2023-05-14T06:16:05.303Z,27.75
2023-05-14T06:18:33.721Z,28.53
2023-05-14T06:21:02.136Z,28.63
2023-05-14T06:23:31.357Z,26.40
2023-05-14T06:25:59.622Z,25.95
2023-05-14T06:28:27.985Z,27.49
2023-05-14T06:30:56.329Z,28.90
2023-05-14T06:33:30.991Z,29.34
2023-05-14T06:36:00.088Z,29.24
2023-05-14T06:38:28.572Z,29.37
2023-05-14T06:40:56.905Z,30.16
2023-05-14T06:43:25.332Z,29.23
2023-05-14T06:45:54.302Z,29.62
2023-05-14T06:48:22.947Z,29.80
2023-05-14T06:50:52.727Z,28.46
2023-05-14T06:53:21.196Z,28.16
2023-05-14T06:55:49.716Z,27.20
2023-05-14T06:58:17.960Z,26.16
2023-05-14T07:00:46.915Z,26.35
2023-05-14T07:03:15.307Z,27.27
2023-05-14T07:05:45.084Z,28.11
2023-05-14T07:08:14.930Z,26.86
2023-05-14T07:10:43.341Z,27.99
2023-05-14T07:13:11.632Z,26.86
2023-05-14T07:15:39.982Z,25.73
2023-05-14T07:18:08.285Z,28.04
2023-05-14T07:20:36.650Z,28.74
2023-05-14T07:23:05.089Z,28.93
2023-05-14T07:25:34.872Z,29.02
2023-05-14T07:28:03.281Z,28.96
2023-05-14T07:30:31.718Z,29.19
2023-05-14T07:33:00.212Z,28.56
2023-05-14T07:35:28.622Z,25.71
2023-05-14T07:37:57.024Z,25.46
2023-05-14T07:40:26.400Z,26.48
2023-05-14T07:42:56.464Z,26.25
2023-05-14T07:45:24.907Z,25.23
2023-05-14T07:47:53.421Z,23.36
2023-05-14T07:50:22.407Z,22.99
2023-05-14T07:52:50.964Z,22.23
2023-05-14T07:55:19.538Z,21.84
2023-05-14T07:57:47.831Z,21.32
2023-05-14T08:00:18.140Z,21.41
2023-05-14T08:02:46.728Z,20.25
2023-05-14T08:05:15.441Z,19.50
2023-05-14T08:07:43.780Z,19.27
2023-05-14T08:10:12.678Z,20.18
2023-05-14T08:12:41.236Z,20.48
2023-05-14T08:15:10.760Z,20.56
2023-05-14T08:17:40.642Z,19.92
2023-05-14T08:20:10.427Z,20.35
2023-05-14T08:22:38.689Z,19.73
2023-05-14T08:25:07.939Z,20.29
2023-05-14T08:27:36.371Z,20.97
2023-05-14T08:30:05.447Z,20.96
2023-05-14T08:32:33.790Z,20.45
2023-05-14T08:35:03.586Z,18.91
2023-05-14T08:37:32.086Z,18.92
2023-05-14T08:40:00.449Z,19.21
2023-05-14T08:42:30.495Z,19.89
2023-05-14T08:45:02.549Z,20.22
2023-05-14T08:47:32.083Z,20.57
2023-05-14T08:50:05.206Z,20.03
2023-05-14T08:52:36.095Z,20.03
2023-05-14T08:55:07.098Z,19.90
2023-05-14T08:57:36.017Z,20.44
2023-05-14T09:00:08.503Z,19.94
2023-05-14T09:02:38.105Z,20.42
2023-05-14T09:05:09.362Z,19.84
2023-05-14T09:07:37.852Z,19.42
2023-05-14T09:10:07.041Z,19.82
2023-05-14T09:12:36.539Z,19.73
2023-05-14T09:15:05.435Z,19.82
2023-05-14T09:17:35.961Z,19.26
2023-05-14T09:20:06.307Z,19.51
2023-05-14T09:22:36.466Z,18.87
2023-05-14T09:25:06.372Z,19.08
2023-05-14T09:27:35.305Z,19.50
2023-05-14T09:30:11.863Z,19.29
2023-05-14T09:32:42.685Z,18.59
2023-05-14T09:35:12.832Z,18.90
2023-05-14T09:37:45.011Z,19.24
2023-05-14T09:40:14.058Z,18.98
2023-05-14T09:42:42.684Z,18.91
2023-05-14T09:45:12.308Z,18.94
2023-05-14T09:47:41.151Z,19.01
2023-05-14T09:50:11.072Z,18.26
2023-05-14T09:52:39.992Z,17.63
2023-05-14T09:55:10.704Z,18.31
2023-05-14T09:57:39.224Z,18.44
2023-05-14T10:00:10.329Z,18.56
2023-05-14T10:02:41.393Z,18.72
2023-05-14T10:05:10.654Z,18.73
2023-05-14T10:07:42.974Z,19.03
2023-05-14T10:10:19.058Z,18.63
2023-05-14T10:12:53.295Z,17.99
2023-05-14T10:15:25.284Z,17.40
2023-05-14T10:18:00.620Z,17.95
2023-05-14T10:20:29.821Z,18.38
2023-05-14T10:22:59.680Z,18.16
2023-05-14T10:25:29.496Z,18.48
2023-05-14T10:27:58.608Z,17.50
2023-05-14T10:30:27.303Z,17.16
2023-05-14T10:33:09.502Z,17.65
2023-05-14T10:35:56.865Z,18.47
2023-05-14T10:38:27.404Z,18.63
2023-05-14T10:41:05.415Z,18.08
2023-05-14T10:43:39.407Z,17.14
2023-05-14T10:46:09.018Z,17.68
2023-05-14T10:48:38.873Z,17.63
2023-05-14T10:51:10.437Z,17.67
2023-05-14T10:53:39.854Z,17.41
2023-05-14T10:56:11.510Z,17.43
2023-05-14T10:58:41.368Z,17.93
2023-05-14T11:01:11.607Z,18.34
2023-05-14T11:03:45.177Z,18.80
2023-05-14T11:06:15.294Z,17.86
2023-05-14T11:08:44.048Z,18.09
2023-05-14T11:11:14.272Z,17.52
2023-05-14T11:13:44.127Z,18.22
2023-05-14T11:16:22.589Z,18.29
2023-05-14T11:19:02.358Z,18.06
2023-05-14T11:21:31.978Z,18.01
2023-05-14T11:24:01.864Z,17.71
2023-05-14T11:26:33.326Z,17.57
2023-05-14T11:29:02.120Z,16.99
2023-05-14T11:31:30.604Z,17.15
2023-05-14T11:33:59.147Z,16.95
2023-05-14T11:36:27.667Z,16.65
2023-05-14T11:38:56.106Z,17.13
2023-05-14T11:41:24.857Z,17.58
2023-05-14T11:43:54.629Z,17.90
2023-05-14T11:46:24.035Z,17.01
2023-05-14T11:48:53.359Z,17.08
2023-05-14T11:51:23.288Z,17.31
2023-05-14T11:53:51.851Z,17.47
2023-05-14T11:56:21.444Z,17.25
2023-05-14T11:58:51.247Z,17.15
2023-05-14T12:01:20.955Z,16.55
2023-05-14T12:03:49.568Z,16.98
2023-05-14T12:06:19.646Z,17.43
2023-05-14T12:08:49.688Z,17.38
2023-05-14T12:11:22.768Z,17.35
2023-05-14T12:13:51.317Z,17.19
2023-05-14T12:16:22.398Z,17.23
2023-05-14T12:18:50.940Z,16.90
2023-05-14T12:21:19.797Z,16.77
2023-05-14T12:23:48.323Z,17.56
2023-05-14T12:26:16.636Z,17.98
2023-05-14T12:28:49.337Z,17.85
2023-05-14T12:31:17.682Z,17.92
2023-05-14T12:33:47.362Z,17.66
2023-05-14T12:38:48.786Z,17.01
2023-05-14T12:41:17.438Z,16.87
2023-05-14T12:43:46.189Z,17.34
2023-05-14T12:46:14.657Z,16.88
2023-05-14T12:48:43.054Z,16.60
2023-05-14T12:51:13.075Z,16.86
2023-05-14T12:53:41.424Z,17.30
2023-05-14T12:56:10.105Z,17.41
2023-05-14T12:58:38.733Z,17.18
2023-05-14T13:01:07.750Z,17.60
2023-05-14T13:03:36.445Z,17.71
2023-05-14T13:06:05.087Z,17.78
2023-05-14T13:08:35.529Z,18.16
2023-05-14T13:11:04.274Z,18.09
2023-05-14T13:13:32.685Z,18.23
2023-05-14T13:16:01.114Z,18.45
2023-05-14T13:18:31.662Z,18.31
2023-05-14T13:21:00.028Z,17.64
2023-05-14T13:23:28.366Z,17.39
2023-05-14T13:25:58.799Z,17.32
2023-05-14T13:28:27.198Z,17.77
2023-05-14T13:31:10.941Z,17.90
2023-05-14T13:33:42.817Z,17.99
2023-05-14T13:36:12.054Z,17.73
2023-05-14T13:38:40.655Z,17.91
2023-05-14T13:41:10.600Z,17.44
2023-05-14T13:43:39.204Z,16.70
2023-05-14T13:46:07.839Z,16.09
2023-05-14T13:48:37.446Z,15.95
2023-05-14T13:51:05.895Z,16.42
2023-05-14T13:53:34.225Z,16.67
2023-05-14T13:56:02.685Z,16.34
2023-05-14T13:58:32.508Z,16.17
2023-05-14T14:01:01.003Z,16.10
2023-05-14T14:03:29.503Z,15.97
2023-05-14T14:05:57.840Z,16.27
2023-05-14T14:08:26.561Z,16.05
2023-05-14T14:10:56.059Z,15.85
2023-05-14T14:13:24.688Z,16.15
2023-05-14T14:15:54.763Z,16.00
2023-05-14T14:18:23.100Z,16.15
2023-05-14T14:20:51.533Z,16.12
2023-05-14T14:23:19.825Z,16.22
2023-05-14T14:25:48.217Z,16.32
2023-05-14T14:28:16.751Z,16.22
2023-05-14T14:30:45.180Z,16.05
2023-05-14T14:33:15.045Z,15.86
2023-05-14T14:35:43.750Z,16.07
2023-05-14T14:38:12.581Z,16.06
2023-05-14T14:40:40.877Z,16.33
2023-05-14T14:43:09.371Z,16.27
2023-05-14T14:45:37.772Z,15.86
2023-05-14T14:48:27.943Z,16.20
2023-05-14T14:54:07.273Z,16.37
2023-05-14T14:56:35.925Z,15.99
2023-05-14T14:59:04.254Z,15.76
2023-05-14T15:01:32.627Z,15.66
2023-05-14T15:04:01.017Z,15.69
2023-05-14T15:06:29.565Z,15.86
2023-05-14T15:08:57.920Z,15.88
2023-05-14T15:11:28.975Z,15.72
2023-05-14T15:13:57.576Z,15.41
2023-05-14T15:16:26.169Z,15.29
2023-05-14T15:18:54.560Z,15.18
2023-05-14T15:21:23.166Z,14.92
2023-05-14T15:23:51.568Z,14.88
2023-05-14T15:26:20.111Z,15.19
2023-05-14T15:28:50.045Z,15.48
2023-05-14T15:31:18.603Z,15.21
2023-05-14T15:33:47.026Z,15.24
2023-05-14T15:36:15.372Z,15.30
2023-05-14T15:38:43.718Z,15.11
2023-05-14T15:41:12.172Z,15.04
2023-05-14T15:43:40.522Z,14.95
2023-05-14T15:46:10.428Z,14.95
2023-05-14T15:48:38.959Z,14.94
2023-05-14T15:51:07.468Z,14.88
2023-05-14T15:53:35.904Z,14.92
2023-05-14T15:56:04.665Z,14.75
2023-05-14T15:58:33.062Z,14.64
2023-05-14T16:01:01.616Z,14.65
2023-05-14T16:03:31.398Z,14.66
2023-05-14T16:06:00.025Z,14.60
2023-05-14T16:08:28.775Z,14.49
2023-05-14T16:10:57.199Z,14.52
2023-05-14T16:13:25.571Z,14.31
2023-05-14T16:15:54.093Z,14.10
2023-05-14T16:18:22.598Z,14.15
2023-05-14T16:20:53.557Z,13.97
2023-05-14T16:23:22.022Z,13.94
2023-05-14T16:25:50.380Z,13.82
2023-05-14T16:28:19.172Z,13.89
2023-05-14T16:30:47.737Z,13.94
2023-05-14T16:33:16.503Z,13.91
2023-05-14T16:35:45.564Z,13.97
2023-05-14T16:38:15.329Z,13.90
2023-05-14T16:40:43.797Z,13.72
2023-05-14T16:43:12.319Z,13.56
2023-05-14T16:45:41.312Z,13.48
2023-05-14T16:48:09.660Z,13.52
2023-05-14T16:50:38.260Z,13.58
2023-05-14T16:53:06.648Z,13.58
2023-05-14T16:55:36.400Z,13.63
2023-05-14T16:58:04.713Z,13.53
2023-05-14T17:00:33.135Z,13.47
2023-05-14T17:03:02.493Z,13.46
2023-05-14T17:05:31.064Z,13.47
2023-05-14T17:07:59.428Z,13.47
2023-05-14T17:10:30.311Z,13.49
2023-05-14T17:13:00.320Z,13.55
2023-05-14T17:15:28.769Z,13.60
2023-05-14T17:17:57.504Z,13.64
2023-05-14T17:20:27.267Z,13.59
2023-05-14T17:22:55.648Z,13.56
2023-05-14T17:25:26.459Z,13.52
2023-05-14T17:27:55.098Z,13.52
2023-05-14T17:30:27.036Z,13.50
2023-05-14T17:32:55.460Z,13.41
2023-05-14T17:35:24.146Z,13.39
2023-05-14T17:37:52.681Z,13.16
2023-05-14T17:40:21.464Z,13.14
2023-05-14T17:42:49.844Z,13.11
2023-05-14T17:45:20.844Z,13.09
2023-05-14T17:47:52.099Z,13.02
2023-05-14T17:50:21.101Z,12.93
2023-05-14T17:52:49.467Z,12.93
2023-05-14T17:55:19.357Z,12.89
2023-05-14T17:57:47.882Z,12.86
2023-05-14T18:00:16.765Z,12.84
2023-05-14T18:02:45.229Z,12.86
2023-05-14T18:05:15.067Z,12.80
2023-05-14T18:07:43.496Z,12.83
2023-05-14T18:10:12.193Z,12.77
2023-05-14T18:12:40.531Z,12.73
2023-05-14T18:15:09.811Z,12.76
2023-05-14T18:17:38.176Z,12.72
2023-05-14T18:20:09.156Z,12.70
2023-05-14T18:22:39.096Z,12.64
2023-05-14T18:25:09.630Z,12.70
2023-05-14T18:27:44.461Z,12.76
2023-05-14T18:30:14.719Z,12.71
2023-05-14T18:32:44.155Z,12.58
2023-05-14T18:35:14.158Z,12.56
2023-05-14T18:37:43.926Z,12.57
2023-05-14T18:40:16.886Z,12.50
2023-05-14T18:42:46.804Z,12.46
2023-05-14T18:45:15.268Z,12.45
2023-05-14T18:47:43.847Z,12.41
2023-05-14T18:50:12.745Z,12.42
2023-05-14T18:52:41.241Z,12.49
2023-05-14T18:55:11.433Z,12.55
2023-05-14T18:57:39.773Z,12.61
2023-05-14T19:00:09.472Z,12.66
2023-05-14T19:02:38.988Z,12.70
2023-05-14T19:05:08.422Z,12.76
2023-05-14T19:07:38.067Z,12.76
2023-05-14T19:10:07.939Z,12.76
2023-05-14T19:12:37.721Z,12.83
2023-05-14T19:15:07.044Z,12.81
2023-05-14T19:17:35.524Z,12.80
2023-05-14T19:20:04.657Z,12.84
2023-05-14T19:22:33.201Z,12.77
2023-05-14T19:25:01.632Z,12.77
2023-05-14T19:27:30.265Z,12.82
2023-05-14T19:29:59.974Z,12.85
2023-05-14T19:32:28.319Z,12.91
2023-05-14T19:34:56.791Z,12.90
2023-05-14T19:37:26.301Z,12.85
2023-05-14T19:39:54.587Z,12.91
2023-05-14T19:42:22.969Z,12.91
2023-05-14T19:44:51.463Z,12.85
2023-05-14T19:47:21.358Z,12.81
2023-05-14T19:49:49.700Z,12.80
2023-05-14T19:52:18.063Z,12.82
2023-05-14T19:54:46.396Z,12.85
2023-05-14T19:57:14.771Z,12.86
2023-05-14T19:59:44.529Z,12.81
2023-05-14T20:02:18.593Z,12.82
2023-05-14T20:04:48.571Z,12.80
2023-05-14T20:07:17.294Z,12.72
2023-05-14T20:09:46.549Z,12.67
2023-05-14T20:12:14.878Z,12.76
2023-05-14T20:14:43.626Z,12.71
2023-05-14T20:17:12.177Z,12.67
2023-05-14T20:19:41.338Z,12.62
2023-05-14T20:22:11.405Z,12.59
2023-05-14T20:24:41.262Z,12.58
2023-05-14T20:27:09.701Z,12.58
2023-05-14T20:29:37.980Z,12.48
2023-05-14T20:32:07.380Z,12.45
2023-05-14T20:34:35.667Z,12.48
2023-05-14T20:37:05.565Z,12.47
2023-05-14T20:39:35.424Z,12.53
2023-05-14T20:42:03.919Z,12.56
2023-05-14T20:44:32.278Z,12.55
2023-05-14T20:47:00.793Z,12.54
2023-05-14T20:49:29.525Z,12.54
2023-05-14T20:51:57.889Z,12.55
2023-05-14T20:54:26.270Z,12.55
2023-05-14T20:56:56.020Z,12.60
2023-05-14T20:59:24.572Z,12.69
2023-05-14T21:01:52.937Z,12.63
2023-05-14T21:04:21.421Z,12.64
2023-05-14T21:06:50.063Z,12.68
2023-05-14T21:09:18.345Z,12.67
2023-05-14T21:11:46.799Z,12.67
2023-05-14T21:14:16.639Z,12.64
2023-05-14T21:16:45.195Z,12.62
2023-05-14T21:19:15.349Z,12.57
2023-05-14T21:21:44.172Z,12.54
2023-05-14T21:24:12.451Z,12.53
2023-05-14T21:26:41.464Z,12.52
2023-05-14T21:29:09.878Z,12.50
2023-05-14T21:31:39.753Z,12.49
2023-05-14T21:34:08.201Z,12.51
2023-05-14T21:36:36.970Z,12.51
2023-05-14T21:39:05.596Z,12.45
2023-05-14T21:41:33.997Z,12.47
2023-05-14T21:44:02.304Z,12.40
2023-05-14T21:46:30.752Z,12.37
2023-05-14T21:49:00.526Z,12.36
2023-05-14T21:51:29.072Z,12.31
2023-05-14T21:53:57.373Z,12.28
2023-05-14T21:56:26.431Z,12.29
2023-05-14T21:58:56.194Z,12.29
2023-05-14T22:01:24.567Z,12.30
2023-05-14T22:03:53.641Z,12.28
2023-05-14T22:06:24.360Z,12.29
2023-05-14T22:08:52.716Z,12.30
2023-05-14T22:11:21.971Z,12.33
2023-05-14T22:13:50.542Z,12.31
2023-05-14T22:16:18.953Z,12.32
2023-05-14T22:18:47.392Z,12.29
2023-05-14T22:21:15.750Z,12.25
2023-05-14T22:23:45.653Z,12.30
2023-05-14T22:26:13.995Z,12.30
2023-05-14T22:28:43.200Z,12.33
2023-05-14T22:31:11.806Z,12.37
2023-05-14T22:33:40.171Z,12.41
2023-05-14T22:36:08.946Z,12.53
2023-05-14T22:38:37.228Z,12.57
2023-05-14T22:41:07.035Z,12.58
2023-05-14T22:43:35.496Z,12.63
2023-05-14T22:46:03.833Z,12.68
2023-05-14T22:48:32.196Z,12.70
2023-05-14T22:51:00.734Z,12.78
2023-05-14T22:53:29.057Z,12.74
2023-05-14T22:55:57.398Z,12.73
2023-05-14T22:58:27.333Z,12.72
2023-05-14T23:00:55.628Z,12.81
2023-05-14T23:03:23.924Z,12.84
2023-05-14T23:05:52.937Z,12.81
2023-05-14T23:08:21.226Z,12.80
2023-05-14T23:10:49.748Z,12.79
2023-05-14T23:13:19.277Z,12.85
2023-05-14T23:15:49.055Z,12.79
2023-05-14T23:18:17.539Z,12.76
2023-05-14T23:20:45.998Z,12.73
2023-05-14T23:23:14.381Z,12.71
2023-05-14T23:25:42.938Z,12.70
2023-05-14T23:28:11.424Z,12.79
2023-05-14T23:30:39.761Z,12.80
2023-05-14T23:33:09.535Z,12.80
2023-05-14T23:35:39.711Z,12.80
2023-05-14T23:38:08.392Z,12.84
2023-05-14T23:40:36.937Z,12.84
2023-05-14T23:43:05.308Z,12.89
2023-05-14T23:45:33.951Z,12.91
2023-05-14T23:48:03.597Z,12.95
2023-05-14T23:50:33.561Z,12.94
2023-05-14T23:53:02.162Z,12.96
2023-05-14T23:55:30.639Z,12.98
2023-05-14T23:57:59.093Z,12.86
